sensor_id;sensor_type;location;lat;lon;timestamp;temperature;humidity
40177;DHT22;31511;46.176;9.874;2023-04-25T00:01:13;12.20;99.90
40177;DHT22;31511;46.176;9.874;2023-04-25T00:03:58;12.30;99.90
40177;DHT22;31511;46.176;9.874;2023-04-25T00:06:42;12.20;99.90
40177;DHT22;31511;46.176;9.874;2023-04-25T00:09:27;12.10;99.90
40177;DHT22;31511;46.176;9.874;2023-04-25T00:12:12;12.20;99.90
40177;DHT22;31511;46.176;9.874;2023-04-25T00:14:57;12.30;99.90
40177;DHT22;31511;46.176;9.874;2023-04-25T00:17:41;12.20;99.90
40177;DHT22;31511;46.176;9.874;2023-04-25T00:20:27;12.10;99.90
40177;DHT22;31511;46.176;9.874;2023-04-25T00:23:14;12.10;99.90
40177;DHT22;31511;46.176;9.874;2023-04-25T00:26:02;12.20;99.90
40177;DHT22;31511;46.176;9.874;2023-04-25T00:28:47;12.30;99.90
40177;DHT22;31511;46.176;9.874;2023-04-25T00:31:31;12.30;99.90
40177;DHT22;31511;46.176;9.874;2023-04-25T00:34:15;12.40;99.90
40177;DHT22;31511;46.176;9.874;2023-04-25T00:37:00;12.20;99.90
40177;DHT22;31511;46.176;9.874;2023-04-25T00:39:45;12.10;99.90
40177;DHT22;31511;46.176;9.874;2023-04-25T00:42:30;12.10;99.90
40177;DHT22;31511;46.176;9.874;2023-04-25T00:45:14;12.10;99.90
40177;DHT22;31511;46.176;9.874;2023-04-25T00:47:59;11.90;99.90
40177;DHT22;31511;46.176;9.874;2023-04-25T00:50:50;12.00;99.90
40177;DHT22;31511;46.176;9.874;2023-04-25T00:53:35;12.20;99.90
40177;DHT22;31511;46.176;9.874;2023-04-25T00:56:20;12.20;99.90
40177;DHT22;31511;46.176;9.874;2023-04-25T00:59:06;12.10;99.90
40177;DHT22;31511;46.176;9.874;2023-04-25T01:01:51;12.10;99.90
40177;DHT22;31511;46.176;9.874;2023-04-25T01:04:35;12.20;99.90
40177;DHT22;31511;46.176;9.874;2023-04-25T01:07:21;12.30;99.90
40177;DHT22;31511;46.176;9.874;2023-04-25T01:10:06;12.00;99.90
40177;DHT22;31511;46.176;9.874;2023-04-25T01:12:51;11.90;99.90
40177;DHT22;31511;46.176;9.874;2023-04-25T01:15:36;12.10;99.90
40177;DHT22;31511;46.176;9.874;2023-04-25T01:18:21;12.10;99.90
40177;DHT22;31511;46.176;9.874;2023-04-25T01:21:07;12.00;99.90
40177;DHT22;31511;46.176;9.874;2023-04-25T01:23:52;12.00;99.90
40177;DHT22;31511;46.176;9.874;2023-04-25T01:26:37;12.00;99.90
40177;DHT22;31511;46.176;9.874;2023-04-25T01:29:23;12.10;99.90
40177;DHT22;31511;46.176;9.874;2023-04-25T01:32:09;12.10;99.90
40177;DHT22;31511;46.176;9.874;2023-04-25T01:34:54;12.10;99.90
40177;DHT22;31511;46.176;9.874;2023-04-25T01:37:41;12.00;99.90
40177;DHT22;31511;46.176;9.874;2023-04-25T01:40:27;12.00;99.90
40177;DHT22;31511;46.176;9.874;2023-04-25T01:43:13;11.90;99.90
40177;DHT22;31511;46.176;9.874;2023-04-25T01:45:58;11.90;99.90
40177;DHT22;31511;46.176;9.874;2023-04-25T01:48:43;11.90;99.90
40177;DHT22;31511;46.176;9.874;2023-04-25T01:51:28;11.90;99.90
40177;DHT22;31511;46.176;9.874;2023-04-25T01:54:13;11.90;99.90
40177;DHT22;31511;46.176;9.874;2023-04-25T01:56:58;12.30;99.90
40177;DHT22;31511;46.176;9.874;2023-04-25T01:59:43;12.20;99.90
40177;DHT22;31511;46.176;9.874;2023-04-25T02:02:28;12.00;99.90
40177;DHT22;31511;46.176;9.874;2023-04-25T02:05:13;12.10;99.90
40177;DHT22;31511;46.176;9.874;2023-04-25T02:07:58;12.00;99.90
40177;DHT22;31511;46.176;9.874;2023-04-25T02:10:43;12.00;99.90
40177;DHT22;31511;46.176;9.874;2023-04-25T02:13:27;12.00;99.90
40177;DHT22;31511;46.176;9.874;2023-04-25T02:16:12;12.20;99.90
40177;DHT22;31511;46.176;9.874;2023-04-25T02:18:58;12.10;99.90
40177;DHT22;31511;46.176;9.874;2023-04-25T02:21:43;11.70;99.90
40177;DHT22;31511;46.176;9.874;2023-04-25T02:24:28;11.80;99.90
40177;DHT22;31511;46.176;9.874;2023-04-25T02:27:13;11.80;99.90
40177;DHT22;31511;46.176;9.874;2023-04-25T02:29:59;11.70;99.90
40177;DHT22;31511;46.176;9.874;2023-04-25T02:32:43;11.70;99.90
40177;DHT22;31511;46.176;9.874;2023-04-25T02:35:28;11.80;99.90
40177;DHT22;31511;46.176;9.874;2023-04-25T02:38:13;12.00;99.90
40177;DHT22;31511;46.176;9.874;2023-04-25T02:40:58;12.00;99.90
40177;DHT22;31511;46.176;9.874;2023-04-25T02:43:43;12.00;99.90
40177;DHT22;31511;46.176;9.874;2023-04-25T02:46:28;12.10;99.90
40177;DHT22;31511;46.176;9.874;2023-04-25T02:49:14;11.90;99.90
40177;DHT22;31511;46.176;9.874;2023-04-25T02:51:59;12.00;99.90
40177;DHT22;31511;46.176;9.874;2023-04-25T02:54:43;12.00;99.90
40177;DHT22;31511;46.176;9.874;2023-04-25T02:57:29;12.20;99.90
40177;DHT22;31511;46.176;9.874;2023-04-25T03:00:13;12.00;99.90
40177;DHT22;31511;46.176;9.874;2023-04-25T03:02:57;11.90;99.90
40177;DHT22;31511;46.176;9.874;2023-04-25T03:05:41;11.90;99.90
40177;DHT22;31511;46.176;9.874;2023-04-25T03:08:27;11.80;99.90
40177;DHT22;31511;46.176;9.874;2023-04-25T03:11:16;11.80;99.90
40177;DHT22;31511;46.176;9.874;2023-04-25T03:14:00;12.10;99.90
40177;DHT22;31511;46.176;9.874;2023-04-25T03:16:45;12.10;99.90
40177;DHT22;31511;46.176;9.874;2023-04-25T03:19:30;12.30;99.90
40177;DHT22;31511;46.176;9.874;2023-04-25T03:22:15;12.00;99.90
40177;DHT22;31511;46.176;9.874;2023-04-25T03:25:00;11.40;99.90
40177;DHT22;31511;46.176;9.874;2023-04-25T03:27:44;11.10;99.90
40177;DHT22;31511;46.176;9.874;2023-04-25T03:30:28;11.20;99.90
40177;DHT22;31511;46.176;9.874;2023-04-25T03:33:13;11.10;99.90
40177;DHT22;31511;46.176;9.874;2023-04-25T03:35:58;11.40;99.90
40177;DHT22;31511;46.176;9.874;2023-04-25T03:38:42;11.50;99.90
40177;DHT22;31511;46.176;9.874;2023-04-25T03:41:28;11.90;99.90
40177;DHT22;31511;46.176;9.874;2023-04-25T03:44:13;11.90;99.90
40177;DHT22;31511;46.176;9.874;2023-04-25T03:46:58;11.60;99.90
40177;DHT22;31511;46.176;9.874;2023-04-25T03:49:42;11.40;99.90
40177;DHT22;31511;46.176;9.874;2023-04-25T03:52:28;11.40;99.90
40177;DHT22;31511;46.176;9.874;2023-04-25T03:55:13;11.50;99.90
40177;DHT22;31511;46.176;9.874;2023-04-25T03:57:58;11.50;99.90
40177;DHT22;31511;46.176;9.874;2023-04-25T04:00:42;11.50;99.90
40177;DHT22;31511;46.176;9.874;2023-04-25T04:03:28;11.20;99.90
40177;DHT22;31511;46.176;9.874;2023-04-25T04:06:14;11.30;99.90
40177;DHT22;31511;46.176;9.874;2023-04-25T04:08:59;11.50;99.90
40177;DHT22;31511;46.176;9.874;2023-04-25T04:11:43;11.90;99.90
40177;DHT22;31511;46.176;9.874;2023-04-25T04:14:29;12.20;99.90
40177;DHT22;31511;46.176;9.874;2023-04-25T04:17:14;12.50;99.90
40177;DHT22;31511;46.176;9.874;2023-04-25T04:19:58;12.70;99.90
40177;DHT22;31511;46.176;9.874;2023-04-25T04:22:43;13.00;99.90
40177;DHT22;31511;46.176;9.874;2023-04-25T04:25:28;12.80;99.90
40177;DHT22;31511;46.176;9.874;2023-04-25T04:28:14;12.60;99.90
40177;DHT22;31511;46.176;9.874;2023-04-25T04:31:00;12.20;99.90
40177;DHT22;31511;46.176;9.874;2023-04-25T04:33:45;12.60;99.90
40177;DHT22;31511;46.176;9.874;2023-04-25T04:36:30;12.50;99.90
40177;DHT22;31511;46.176;9.874;2023-04-25T04:39:15;12.60;99.90
40177;DHT22;31511;46.176;9.874;2023-04-25T04:42:00;12.70;99.90
40177;DHT22;31511;46.176;9.874;2023-04-25T04:44:45;13.00;99.90
40177;DHT22;31511;46.176;9.874;2023-04-25T04:47:30;13.10;99.90
40177;DHT22;31511;46.176;9.874;2023-04-25T04:50:15;13.10;99.90
40177;DHT22;31511;46.176;9.874;2023-04-25T04:53:00;12.90;99.90
40177;DHT22;31511;46.176;9.874;2023-04-25T04:55:44;12.50;99.90
40177;DHT22;31511;46.176;9.874;2023-04-25T04:58:29;12.20;99.90
40177;DHT22;31511;46.176;9.874;2023-04-25T05:01:13;12.10;99.90
40177;DHT22;31511;46.176;9.874;2023-04-25T05:03:59;12.10;99.90
40177;DHT22;31511;46.176;9.874;2023-04-25T05:06:44;12.10;99.90
40177;DHT22;31511;46.176;9.874;2023-04-25T05:09:28;12.30;99.90
40177;DHT22;31511;46.176;9.874;2023-04-25T05:12:13;12.10;99.90
40177;DHT22;31511;46.176;9.874;2023-04-25T05:15:00;12.20;99.90
40177;DHT22;31511;46.176;9.874;2023-04-25T05:17:46;12.40;99.90
40177;DHT22;31511;46.176;9.874;2023-04-25T05:20:30;12.30;99.90
40177;DHT22;31511;46.176;9.874;2023-04-25T05:23:14;12.30;99.90
40177;DHT22;31511;46.176;9.874;2023-04-25T05:26:00;12.00;99.90
40177;DHT22;31511;46.176;9.874;2023-04-25T05:28:44;12.20;99.90
40177;DHT22;31511;46.176;9.874;2023-04-25T05:31:29;12.00;99.90
40177;DHT22;31511;46.176;9.874;2023-04-25T05:34:13;12.10;99.90
40177;DHT22;31511;46.176;9.874;2023-04-25T05:36:58;12.10;99.90
40177;DHT22;31511;46.176;9.874;2023-04-25T05:39:43;11.90;99.90
40177;DHT22;31511;46.176;9.874;2023-04-25T05:42:28;12.00;99.90
40177;DHT22;31511;46.176;9.874;2023-04-25T05:45:14;12.10;99.90
40177;DHT22;31511;46.176;9.874;2023-04-25T05:47:59;12.40;99.90
40177;DHT22;31511;46.176;9.874;2023-04-25T05:50:43;12.50;99.90
40177;DHT22;31511;46.176;9.874;2023-04-25T05:53:29;12.50;99.90
40177;DHT22;31511;46.176;9.874;2023-04-25T05:56:14;12.60;99.90
40177;DHT22;31511;46.176;9.874;2023-04-25T05:59:01;12.70;99.90
40177;DHT22;31511;46.176;9.874;2023-04-25T06:01:45;12.80;99.90
40177;DHT22;31511;46.176;9.874;2023-04-25T06:04:30;12.70;99.90
40177;DHT22;31511;46.176;9.874;2023-04-25T06:07:15;12.80;99.90
40177;DHT22;31511;46.176;9.874;2023-04-25T06:10:00;12.80;99.90
40177;DHT22;31511;46.176;9.874;2023-04-25T06:12:44;12.80;99.90
40177;DHT22;31511;46.176;9.874;2023-04-25T06:15:30;13.00;99.90
40177;DHT22;31511;46.176;9.874;2023-04-25T06:18:17;13.00;99.90
40177;DHT22;31511;46.176;9.874;2023-04-25T06:21:01;13.00;99.90
40177;DHT22;31511;46.176;9.874;2023-04-25T06:23:46;13.00;99.90
40177;DHT22;31511;46.176;9.874;2023-04-25T06:26:31;13.00;99.90
40177;DHT22;31511;46.176;9.874;2023-04-25T06:29:16;13.20;99.90
40177;DHT22;31511;46.176;9.874;2023-04-25T06:32:00;13.00;99.90
40177;DHT22;31511;46.176;9.874;2023-04-25T06:34:45;13.00;99.90
40177;DHT22;31511;46.176;9.874;2023-04-25T06:37:30;13.10;99.90
40177;DHT22;31511;46.176;9.874;2023-04-25T06:40:15;13.20;99.90
40177;DHT22;31511;46.176;9.874;2023-04-25T06:43:01;13.20;99.90
40177;DHT22;31511;46.176;9.874;2023-04-25T06:45:45;13.40;99.90
40177;DHT22;31511;46.176;9.874;2023-04-25T06:48:30;13.50;99.90
40177;DHT22;31511;46.176;9.874;2023-04-25T06:51:14;13.60;99.90
40177;DHT22;31511;46.176;9.874;2023-04-25T06:53:59;13.60;99.90
40177;DHT22;31511;46.176;9.874;2023-04-25T06:56:43;13.70;99.90
40177;DHT22;31511;46.176;9.874;2023-04-25T06:59:29;13.60;99.90
40177;DHT22;31511;46.176;9.874;2023-04-25T07:02:14;13.60;99.90
40177;DHT22;31511;46.176;9.874;2023-04-25T07:04:59;13.60;99.90
40177;DHT22;31511;46.176;9.874;2023-04-25T07:07:45;13.60;99.90
40177;DHT22;31511;46.176;9.874;2023-04-25T07:10:31;13.80;99.90
40177;DHT22;31511;46.176;9.874;2023-04-25T07:13:16;13.80;99.90
40177;DHT22;31511;46.176;9.874;2023-04-25T07:16:01;13.80;99.90
40177;DHT22;31511;46.176;9.874;2023-04-25T07:18:47;13.80;99.90
40177;DHT22;31511;46.176;9.874;2023-04-25T07:21:31;13.90;99.90
40177;DHT22;31511;46.176;9.874;2023-04-25T07:24:15;13.90;99.90
40177;DHT22;31511;46.176;9.874;2023-04-25T07:27:00;14.00;99.90
40177;DHT22;31511;46.176;9.874;2023-04-25T07:29:45;14.10;99.90
40177;DHT22;31511;46.176;9.874;2023-04-25T07:32:30;14.30;99.90
40177;DHT22;31511;46.176;9.874;2023-04-25T07:35:14;14.20;99.90
40177;DHT22;31511;46.176;9.874;2023-04-25T07:38:00;14.20;99.90
40177;DHT22;31511;46.176;9.874;2023-04-25T07:40:45;14.00;99.90
40177;DHT22;31511;46.176;9.874;2023-04-25T07:43:29;14.20;99.90
40177;DHT22;31511;46.176;9.874;2023-04-25T07:46:13;14.40;99.90
40177;DHT22;31511;46.176;9.874;2023-04-25T07:48:59;14.50;99.90
40177;DHT22;31511;46.176;9.874;2023-04-25T07:51:44;14.50;99.90
40177;DHT22;31511;46.176;9.874;2023-04-25T07:54:29;14.40;99.90
40177;DHT22;31511;46.176;9.874;2023-04-25T07:57:14;14.40;99.90
40177;DHT22;31511;46.176;9.874;2023-04-25T08:00:00;14.30;99.90
40177;DHT22;31511;46.176;9.874;2023-04-25T08:02:46;14.50;99.90
40177;DHT22;31511;46.176;9.874;2023-04-25T08:05:31;14.60;99.90
40177;DHT22;31511;46.176;9.874;2023-04-25T08:08:15;14.60;99.90
40177;DHT22;31511;46.176;9.874;2023-04-25T08:10:59;14.70;99.90
40177;DHT22;31511;46.176;9.874;2023-04-25T08:13:44;14.80;99.90
40177;DHT22;31511;46.176;9.874;2023-04-25T08:16:30;14.80;99.90
40177;DHT22;31511;46.176;9.874;2023-04-25T08:19:15;15.00;99.90
40177;DHT22;31511;46.176;9.874;2023-04-25T08:21:59;15.10;99.90
40177;DHT22;31511;46.176;9.874;2023-04-25T08:24:45;15.20;99.90
40177;DHT22;31511;46.176;9.874;2023-04-25T08:27:30;15.10;99.90
40177;DHT22;31511;46.176;9.874;2023-04-25T08:30:14;15.00;99.90
40177;DHT22;31511;46.176;9.874;2023-04-25T08:32:59;15.20;99.90
40177;DHT22;31511;46.176;9.874;2023-04-25T08:35:44;15.20;99.90
40177;DHT22;31511;46.176;9.874;2023-04-25T08:38:29;15.30;99.90
40177;DHT22;31511;46.176;9.874;2023-04-25T08:41:14;15.40;99.90
40177;DHT22;31511;46.176;9.874;2023-04-25T08:44:00;15.40;99.90
40177;DHT22;31511;46.176;9.874;2023-04-25T08:46:44;15.40;99.90
40177;DHT22;31511;46.176;9.874;2023-04-25T08:49:33;15.50;99.90
40177;DHT22;31511;46.176;9.874;2023-04-25T08:52:19;15.50;99.90
40177;DHT22;31511;46.176;9.874;2023-04-25T08:55:06;15.50;99.90
40177;DHT22;31511;46.176;9.874;2023-04-25T08:57:54;15.70;99.90
40177;DHT22;31511;46.176;9.874;2023-04-25T09:00:40;15.90;99.90
40177;DHT22;31511;46.176;9.874;2023-04-25T09:03:26;16.10;99.90
40177;DHT22;31511;46.176;9.874;2023-04-25T09:06:11;15.90;99.90
40177;DHT22;31511;46.176;9.874;2023-04-25T09:09:01;15.90;99.90
40177;DHT22;31511;46.176;9.874;2023-04-25T09:11:46;16.10;99.90
40177;DHT22;31511;46.176;9.874;2023-04-25T09:14:32;16.10;99.90
40177;DHT22;31511;46.176;9.874;2023-04-25T09:17:17;15.90;99.90
40177;DHT22;31511;46.176;9.874;2023-04-25T09:20:05;15.90;99.90
40177;DHT22;31511;46.176;9.874;2023-04-25T09:23:00;16.20;99.90
40177;DHT22;31511;46.176;9.874;2023-04-25T09:25:46;16.30;99.90
40177;DHT22;31511;46.176;9.874;2023-04-25T09:28:32;16.50;99.90
40177;DHT22;31511;46.176;9.874;2023-04-25T09:31:23;16.60;99.90
40177;DHT22;31511;46.176;9.874;2023-04-25T09:34:09;16.50;99.90
40177;DHT22;31511;46.176;9.874;2023-04-25T09:37:01;16.40;99.90
40177;DHT22;31511;46.176;9.874;2023-04-25T09:39:45;16.50;99.90
40177;DHT22;31511;46.176;9.874;2023-04-25T09:42:34;16.70;99.90
40177;DHT22;31511;46.176;9.874;2023-04-25T09:45:20;16.90;99.90
40177;DHT22;31511;46.176;9.874;2023-04-25T09:48:06;17.10;99.90
40177;DHT22;31511;46.176;9.874;2023-04-25T09:51:03;17.00;99.90
40177;DHT22;31511;46.176;9.874;2023-04-25T09:53:49;17.10;99.90
40177;DHT22;31511;46.176;9.874;2023-04-25T09:56:35;17.00;99.90
40177;DHT22;31511;46.176;9.874;2023-04-25T09:59:21;17.20;99.90
40177;DHT22;31511;46.176;9.874;2023-04-25T10:02:11;17.20;99.90
40177;DHT22;31511;46.176;9.874;2023-04-25T10:04:56;17.70;99.90
40177;DHT22;31511;46.176;9.874;2023-04-25T10:07:42;17.60;99.90
40177;DHT22;31511;46.176;9.874;2023-04-25T10:10:29;17.70;99.90
40177;DHT22;31511;46.176;9.874;2023-04-25T10:13:15;17.80;99.90
40177;DHT22;31511;46.176;9.874;2023-04-25T10:16:03;18.20;99.90
40177;DHT22;31511;46.176;9.874;2023-04-25T10:18:49;20.00;99.90
40177;DHT22;31511;46.176;9.874;2023-04-25T10:21:34;20.90;99.90
40177;DHT22;31511;46.176;9.874;2023-04-25T10:24:21;19.70;99.90
40177;DHT22;31511;46.176;9.874;2023-04-25T10:27:07;18.40;99.90
40177;DHT22;31511;46.176;9.874;2023-04-25T10:30:05;18.30;99.90
40177;DHT22;31511;46.176;9.874;2023-04-25T10:32:52;18.00;99.90
40177;DHT22;31511;46.176;9.874;2023-04-25T10:35:39;18.10;99.90
40177;DHT22;31511;46.176;9.874;2023-04-25T10:38:25;18.10;99.90
40177;DHT22;31511;46.176;9.874;2023-04-25T10:41:12;18.10;99.90
40177;DHT22;31511;46.176;9.874;2023-04-25T10:44:00;17.90;99.90
40177;DHT22;31511;46.176;9.874;2023-04-25T10:46:48;17.70;99.90
40177;DHT22;31511;46.176;9.874;2023-04-25T10:49:52;17.20;99.90
40177;DHT22;31511;46.176;9.874;2023-04-25T10:52:40;16.90;99.90
40177;DHT22;31511;46.176;9.874;2023-04-25T10:55:25;16.50;99.90
40177;DHT22;31511;46.176;9.874;2023-04-25T10:58:11;16.40;99.90
40177;DHT22;31511;46.176;9.874;2023-04-25T11:00:56;16.10;99.90
40177;DHT22;31511;46.176;9.874;2023-04-25T11:03:41;16.10;99.90
40177;DHT22;31511;46.176;9.874;2023-04-25T11:06:37;15.80;99.90
40177;DHT22;31511;46.176;9.874;2023-04-25T11:09:29;15.70;99.90
40177;DHT22;31511;46.176;9.874;2023-04-25T13:21:51;15.70;99.90
40177;DHT22;31511;46.176;9.874;2023-04-25T13:24:35;21.60;99.90
40177;DHT22;31511;46.176;9.874;2023-04-25T13:27:21;22.10;99.90
40177;DHT22;31511;46.176;9.874;2023-04-25T13:30:06;21.70;99.90
40177;DHT22;31511;46.176;9.874;2023-04-25T13:32:51;21.90;99.90
40177;DHT22;31511;46.176;9.874;2023-04-25T13:35:36;21.90;99.90
40177;DHT22;31511;46.176;9.874;2023-04-25T13:38:22;22.00;99.90
40177;DHT22;31511;46.176;9.874;2023-04-25T13:41:09;22.00;99.90
40177;DHT22;31511;46.176;9.874;2023-04-25T13:43:58;22.40;99.90
40177;DHT22;31511;46.176;9.874;2023-04-25T13:46:43;22.60;99.90
40177;DHT22;31511;46.176;9.874;2023-04-25T13:49:30;22.30;99.90
40177;DHT22;31511;46.176;9.874;2023-04-25T13:52:15;22.40;99.90
40177;DHT22;31511;46.176;9.874;2023-04-25T13:55:00;21.90;99.90
40177;DHT22;31511;46.176;9.874;2023-04-25T14:33:41;22.10;99.90
40177;DHT22;31511;46.176;9.874;2023-04-25T16:51:23;20.60;99.90
40177;DHT22;31511;46.176;9.874;2023-04-25T16:54:09;18.80;99.90
40177;DHT22;31511;46.176;9.874;2023-04-25T16:56:54;18.60;99.90
40177;DHT22;31511;46.176;9.874;2023-04-25T16:59:39;18.50;99.90
40177;DHT22;31511;46.176;9.874;2023-04-25T17:02:25;18.40;99.90
40177;DHT22;31511;46.176;9.874;2023-04-25T17:05:11;18.40;99.90
40177;DHT22;31511;46.176;9.874;2023-04-25T17:07:56;18.20;99.90
40177;DHT22;31511;46.176;9.874;2023-04-25T17:10:41;17.90;99.90
40177;DHT22;31511;46.176;9.874;2023-04-25T17:13:26;17.70;99.90
40177;DHT22;31511;46.176;9.874;2023-04-25T17:16:12;17.60;99.90
40177;DHT22;31511;46.176;9.874;2023-04-25T17:18:59;17.50;99.90
40177;DHT22;31511;46.176;9.874;2023-04-25T17:21:44;17.30;99.90
40177;DHT22;31511;46.176;9.874;2023-04-25T17:24:30;17.30;99.90
40177;DHT22;31511;46.176;9.874;2023-04-25T17:27:14;17.20;99.90
40177;DHT22;31511;46.176;9.874;2023-04-25T17:29:59;17.10;99.90
40177;DHT22;31511;46.176;9.874;2023-04-25T17:32:44;17.00;99.90
40177;DHT22;31511;46.176;9.874;2023-04-25T17:35:30;17.00;99.90
40177;DHT22;31511;46.176;9.874;2023-04-25T17:38:14;16.90;99.90
40177;DHT22;31511;46.176;9.874;2023-04-25T17:40:59;16.90;99.90
40177;DHT22;31511;46.176;9.874;2023-04-25T17:43:44;16.80;99.90
40177;DHT22;31511;46.176;9.874;2023-04-25T17:46:30;16.80;99.90
40177;DHT22;31511;46.176;9.874;2023-04-25T17:49:15;16.70;99.90
40177;DHT22;31511;46.176;9.874;2023-04-25T17:51:59;16.70;99.90
40177;DHT22;31511;46.176;9.874;2023-04-25T17:54:44;16.60;99.90
40177;DHT22;31511;46.176;9.874;2023-04-25T17:57:30;16.50;99.90
40177;DHT22;31511;46.176;9.874;2023-04-25T18:00:14;16.50;99.90
40177;DHT22;31511;46.176;9.874;2023-04-25T18:03:00;16.40;99.90
40177;DHT22;31511;46.176;9.874;2023-04-25T18:05:45;16.30;99.90
40177;DHT22;31511;46.176;9.874;2023-04-25T18:08:29;16.30;99.90
40177;DHT22;31511;46.176;9.874;2023-04-25T18:11:14;16.20;99.90
40177;DHT22;31511;46.176;9.874;2023-04-25T18:14:01;16.20;99.90
40177;DHT22;31511;46.176;9.874;2023-04-25T18:16:47;16.30;99.90
40177;DHT22;31511;46.176;9.874;2023-04-25T18:19:33;16.20;99.90
40177;DHT22;31511;46.176;9.874;2023-04-25T18:22:18;16.10;99.90
40177;DHT22;31511;46.176;9.874;2023-04-25T18:25:02;16.10;99.90
40177;DHT22;31511;46.176;9.874;2023-04-25T18:27:49;16.00;99.90
40177;DHT22;31511;46.176;9.874;2023-04-25T18:30:34;16.00;99.90
40177;DHT22;31511;46.176;9.874;2023-04-25T18:33:22;16.10;99.90
40177;DHT22;31511;46.176;9.874;2023-04-25T18:36:08;16.00;99.90
40177;DHT22;31511;46.176;9.874;2023-04-25T18:38:56;16.00;99.90
40177;DHT22;31511;46.176;9.874;2023-04-25T18:41:42;16.00;99.90
40177;DHT22;31511;46.176;9.874;2023-04-25T18:44:28;16.00;99.90
40177;DHT22;31511;46.176;9.874;2023-04-25T18:47:16;16.00;99.90
40177;DHT22;31511;46.176;9.874;2023-04-25T18:50:01;15.90;99.90
40177;DHT22;31511;46.176;9.874;2023-04-25T18:52:47;15.70;99.90
40177;DHT22;31511;46.176;9.874;2023-04-25T18:55:32;15.70;99.90
40177;DHT22;31511;46.176;9.874;2023-04-25T18:58:16;15.70;99.90
40177;DHT22;31511;46.176;9.874;2023-04-25T19:01:01;15.70;99.90
40177;DHT22;31511;46.176;9.874;2023-04-25T19:03:48;15.50;99.90
40177;DHT22;31511;46.176;9.874;2023-04-25T19:06:39;15.50;99.90
40177;DHT22;31511;46.176;9.874;2023-04-25T19:09:25;15.60;99.90
40177;DHT22;31511;46.176;9.874;2023-04-25T19:12:11;15.50;99.90
40177;DHT22;31511;46.176;9.874;2023-04-25T19:14:57;15.60;99.90
40177;DHT22;31511;46.176;9.874;2023-04-25T19:17:42;15.50;99.90
40177;DHT22;31511;46.176;9.874;2023-04-25T19:20:28;15.60;99.90
40177;DHT22;31511;46.176;9.874;2023-04-25T19:23:14;15.60;99.90
40177;DHT22;31511;46.176;9.874;2023-04-25T19:26:00;15.30;99.90
40177;DHT22;31511;46.176;9.874;2023-04-25T19:28:45;15.20;99.90
40177;DHT22;31511;46.176;9.874;2023-04-25T19:31:32;15.00;99.90
40177;DHT22;31511;46.176;9.874;2023-04-25T19:34:16;15.00;99.90
40177;DHT22;31511;46.176;9.874;2023-04-25T19:37:01;14.90;99.90
40177;DHT22;31511;46.176;9.874;2023-04-25T19:39:46;15.30;99.90
40177;DHT22;31511;46.176;9.874;2023-04-25T19:42:32;15.20;99.90
40177;DHT22;31511;46.176;9.874;2023-04-25T19:45:16;15.20;99.90
40177;DHT22;31511;46.176;9.874;2023-04-25T19:48:00;15.00;99.90
40177;DHT22;31511;46.176;9.874;2023-04-25T19:50:48;14.80;99.90
40177;DHT22;31511;46.176;9.874;2023-04-25T19:53:33;14.60;99.90
40177;DHT22;31511;46.176;9.874;2023-04-25T19:56:18;14.40;99.90
40177;DHT22;31511;46.176;9.874;2023-04-25T19:59:02;14.50;99.90
40177;DHT22;31511;46.176;9.874;2023-04-25T20:01:46;14.60;99.90
40177;DHT22;31511;46.176;9.874;2023-04-25T20:04:32;14.30;99.90
40177;DHT22;31511;46.176;9.874;2023-04-25T20:07:17;14.20;99.90
40177;DHT22;31511;46.176;9.874;2023-04-25T20:10:06;13.90;99.90
40177;DHT22;31511;46.176;9.874;2023-04-25T20:12:51;13.90;99.90
40177;DHT22;31511;46.176;9.874;2023-04-25T20:15:37;13.90;99.90
40177;DHT22;31511;46.176;9.874;2023-04-25T20:18:22;13.90;99.90
40177;DHT22;31511;46.176;9.874;2023-04-25T20:21:08;13.90;99.90
40177;DHT22;31511;46.176;9.874;2023-04-25T20:23:53;14.10;99.90
40177;DHT22;31511;46.176;9.874;2023-04-25T20:26:39;14.10;99.90
40177;DHT22;31511;46.176;9.874;2023-04-25T20:29:24;13.90;99.90
40177;DHT22;31511;46.176;9.874;2023-04-25T20:32:11;13.80;99.90
40177;DHT22;31511;46.176;9.874;2023-04-25T20:34:55;13.60;99.90
40177;DHT22;31511;46.176;9.874;2023-04-25T20:37:40;13.50;99.90
40177;DHT22;31511;46.176;9.874;2023-04-25T20:40:27;13.60;99.90
40177;DHT22;31511;46.176;9.874;2023-04-25T20:43:13;13.50;99.90
40177;DHT22;31511;46.176;9.874;2023-04-25T20:45:58;13.50;99.90
40177;DHT22;31511;46.176;9.874;2023-04-25T20:48:43;13.60;99.90
40177;DHT22;31511;46.176;9.874;2023-04-25T20:51:30;13.60;99.90
40177;DHT22;31511;46.176;9.874;2023-04-25T20:54:15;13.60;99.90
40177;DHT22;31511;46.176;9.874;2023-04-25T20:56:59;13.30;99.90
40177;DHT22;31511;46.176;9.874;2023-04-25T20:59:45;13.40;99.90
40177;DHT22;31511;46.176;9.874;2023-04-25T21:02:31;13.50;99.90
40177;DHT22;31511;46.176;9.874;2023-04-25T21:05:15;13.30;99.90
40177;DHT22;31511;46.176;9.874;2023-04-25T21:08:00;13.30;99.90
40177;DHT22;31511;46.176;9.874;2023-04-25T21:10:46;13.10;99.90
40177;DHT22;31511;46.176;9.874;2023-04-25T21:13:31;13.20;99.90
40177;DHT22;31511;46.176;9.874;2023-04-25T21:16:16;13.00;99.90
40177;DHT22;31511;46.176;9.874;2023-04-25T21:19:00;13.00;99.90
40177;DHT22;31511;46.176;9.874;2023-04-25T21:21:47;12.90;99.90
40177;DHT22;31511;46.176;9.874;2023-04-25T21:24:31;13.00;99.90
40177;DHT22;31511;46.176;9.874;2023-04-25T21:27:16;12.90;99.90
40177;DHT22;31511;46.176;9.874;2023-04-25T21:30:01;13.00;99.90
40177;DHT22;31511;46.176;9.874;2023-04-25T21:32:47;12.70;99.90
40177;DHT22;31511;46.176;9.874;2023-04-25T21:35:35;12.70;99.90
40177;DHT22;31511;46.176;9.874;2023-04-25T21:38:21;12.80;99.90
40177;DHT22;31511;46.176;9.874;2023-04-25T21:41:07;12.70;99.90
40177;DHT22;31511;46.176;9.874;2023-04-25T21:43:52;12.40;99.90
40177;DHT22;31511;46.176;9.874;2023-04-25T21:46:37;12.70;99.90
40177;DHT22;31511;46.176;9.874;2023-04-25T21:49:22;12.60;99.90
40177;DHT22;31511;46.176;9.874;2023-04-25T21:52:12;12.50;99.90
40177;DHT22;31511;46.176;9.874;2023-04-25T21:54:57;12.30;99.90
40177;DHT22;31511;46.176;9.874;2023-04-25T21:57:42;12.10;99.90
40177;DHT22;31511;46.176;9.874;2023-04-25T22:00:29;12.50;99.90
40177;DHT22;31511;46.176;9.874;2023-04-25T22:03:15;12.30;99.90
40177;DHT22;31511;46.176;9.874;2023-04-25T22:06:02;12.40;99.90
40177;DHT22;31511;46.176;9.874;2023-04-25T22:08:48;12.20;99.90
40177;DHT22;31511;46.176;9.874;2023-04-25T22:11:33;12.10;99.90
40177;DHT22;31511;46.176;9.874;2023-04-25T22:14:20;12.10;99.90
40177;DHT22;31511;46.176;9.874;2023-04-25T22:17:08;12.20;99.90
40177;DHT22;31511;46.176;9.874;2023-04-25T22:19:52;12.20;99.90
40177;DHT22;31511;46.176;9.874;2023-04-25T22:22:37;12.00;99.90
40177;DHT22;31511;46.176;9.874;2023-04-25T22:25:24;12.10;99.90